createdAt,value
2023-12-30T00:00:24.624Z,0.90
2023-12-30T00:30:26.141Z,1.10
2023-12-30T01:00:27.651Z,0.70
2023-12-30T01:30:29.146Z,0.80
2023-12-30T02:00:31.144Z,0.80
2023-12-30T02:30:32.627Z,1.30
2023-12-30T03:00:34.188Z,1.00
2023-12-30T03:30:36.755Z,0.90
2023-12-30T04:00:38.285Z,1.40
2023-12-30T04:30:39.853Z,0.80
2023-12-30T05:00:41.420Z,0.60
2023-12-30T05:30:43.015Z,0.90
2023-12-30T06:00:44.540Z,0.73
2023-12-30T06:30:47.702Z,0.87
2023-12-30T07:00:49.242Z,1.20
2023-12-30T07:30:51.511Z,0.70
2023-12-30T08:00:53.265Z,0.60
2023-12-30T08:30:55.858Z,1.50
2023-12-30T09:00:57.686Z,1.00
2023-12-30T09:30:59.403Z,0.63
2023-12-30T10:01:01.090Z,0.80
2023-12-30T10:31:06.891Z,0.83
2023-12-30T11:01:10.622Z,0.90
2023-12-30T11:31:13.669Z,1.10
2023-12-30T12:01:15.307Z,1.20
2023-12-30T12:31:18.389Z,1.53
2023-12-30T13:01:20.119Z,1.93
2023-12-30T13:31:25.449Z,1.00
2023-12-30T14:34:05.896Z,1.30
2023-12-30T15:04:21.633Z,1.53
2023-12-30T15:34:26.558Z,2.00
2023-12-30T16:04:28.197Z,1.73
2023-12-30T16:34:29.826Z,3.33
2023-12-30T17:04:31.766Z,4.13
2023-12-30T17:34:34.955Z,7.03
2023-12-30T18:04:36.653Z,5.43
2023-12-30T18:34:40.002Z,4.40
2023-12-30T19:04:45.113Z,3.63
2023-12-30T19:34:46.706Z,4.10
2023-12-30T20:04:48.516Z,4.30
2023-12-30T20:34:51.096Z,4.47
2023-12-30T21:04:53.315Z,4.00
2023-12-30T21:34:55.005Z,3.23
2023-12-30T22:04:56.598Z,4.53
2023-12-30T22:34:59.277Z,3.40
2023-12-30T23:05:00.867Z,2.60
2023-12-30T23:35:05.012Z,2.00
